Time;durP1;ratioP1;P1;durP2;ratioP2;P2;SDS_P1;SDS_P2;PMS_P1;PMS_P2;Temp;Humidity;BMP_temperature;BMP_pressure;BME280_temperature;BME280_humidity;BME280_pressure;Samples;Min_cycle;Max_cycle;Signal;HPM_P1;HPM_P2
2023/03/06 00:00:42;;;;;;;;;24.00;23.00;;;;;6.36;54.80;97836.72;6154329;28;96211;-56
2023/03/06 00:03:47;;;;;;;;;23.00;23.00;;;;;6.32;54.75;97843.56;6149351;28;96280;-55
2023/03/06 00:06:51;;;;;;;;;21.00;19.00;;;;;6.26;55.23;97843.63;6166201;28;95918;-56
2023/03/06 00:09:54;;;;;;;;;22.50;21.00;;;;;6.30;55.04;97840.31;6166882;28;96562;-56
2023/03/06 00:13:00;;;;;;;;;25.00;23.00;;;;;6.37;55.13;97849.09;6166693;28;96577;-55
2023/03/06 00:16:05;;;;;;;;;23.00;21.00;;;;;6.42;54.89;97854.59;6157837;28;98393;-56
2023/03/06 00:19:10;;;;;;;;;23.00;22.00;;;;;6.46;54.71;97847.75;6200006;28;96350;-55
2023/03/06 00:22:15;;;;;;;;;25.20;20.80;;;;;6.48;54.63;97847.56;6162632;28;96351;-55
2023/03/06 00:25:21;;;;;;;;;21.00;19.00;;;;;6.49;54.63;97841.97;6149256;28;98420;-55
2023/03/06 00:28:24;;;;;;;;;21.40;20.40;;;;;6.49;54.62;97847.34;6150902;28;96211;-55
2023/03/06 00:31:27;;;;;;;;;19.00;17.00;;;;;6.47;54.21;97845.91;6134334;28;96628;-55
2023/03/06 00:34:34;;;;;;;;;25.50;22.00;;;;;6.46;54.41;97844.25;6174127;28;97010;-55
2023/03/06 00:37:37;;;;;;;;;27.00;24.00;;;;;6.39;54.78;97844.34;6138902;28;96656;-55
2023/03/06 00:40:41;;;;;;;;;23.00;22.25;;;;;6.29;55.06;97846.69;6155675;28;96940;-55
2023/03/06 00:43:45;;;;;;;;;25.00;23.40;;;;;6.24;55.36;97843.03;6173840;28;96407;-57
2023/03/06 00:46:48;;;;;;;;;25.75;24.50;;;;;6.24;55.35;97837.69;6173658;28;97513;-55
2023/03/06 00:49:53;;;;;;;;;23.20;21.60;;;;;6.22;55.29;97845.09;6154907;28;96848;-56
2023/03/06 00:52:56;;;;;;;;;23.00;22.50;;;;;6.20;55.22;97834.66;6148160;28;96230;-56
2023/03/06 00:56:00;;;;;;;;;22.60;22.00;;;;;6.24;55.12;97833.16;6114858;28;96631;-55
2023/03/06 00:59:03;;;;;;;;;25.00;24.00;;;;;6.09;55.34;97822.78;6171795;28;96207;-56
2023/03/06 01:02:07;;;;;;;;;21.75;19.75;;;;;6.12;55.66;97831.41;6155286;28;96232;-56
2023/03/06 01:05:13;;;;;;;;;25.20;20.60;;;;;6.08;55.30;97831.84;6156180;28;96052;-55
2023/03/06 01:08:16;;;;;;;;;24.00;23.00;;;;;6.07;55.59;97838.22;6155500;28;96836;-55
2023/03/06 01:11:20;;;;;;;;;27.00;23.60;;;;;6.06;55.54;97835.75;6173550;28;96212;-55
2023/03/06 01:14:23;;;;;;;;;27.00;23.40;;;;;6.03;55.35;97833.53;6138119;28;98171;-56
2023/03/06 01:17:26;;;;;;;;;25.00;23.50;;;;;6.03;55.33;97833.53;6138402;28;96496;-56
2023/03/06 01:20:31;;;;;;;;;24.00;22.00;;;;;5.95;55.23;97821.25;6149385;28;96445;-55
2023/03/06 01:23:34;;;;;;;;;25.00;25.00;;;;;6.01;55.11;97835.63;6140120;28;96549;-55
2023/03/06 01:26:38;;;;;;;;;23.00;21.00;;;;;6.02;55.16;97834.56;6158144;28;97389;-55
2023/03/06 01:29:41;;;;;;;;;23.00;23.00;;;;;5.93;55.11;97826.00;6143991;28;96799;-55
2023/03/06 01:32:45;;;;;;;;;24.00;22.40;;;;;5.95;54.76;97823.94;6144343;28;96586;-57
2023/03/06 01:35:50;;;;;;;;;26.20;24.20;;;;;6.03;54.93;97828.19;6110511;28;98551;-56
2023/03/06 01:38:53;;;;;;;;;28.40;25.40;;;;;5.98;54.83;97823.50;6146520;28;96482;-56
2023/03/06 01:41:57;;;;;;;;;26.40;23.40;;;;;6.04;54.75;97825.31;6149000;28;97084;-57
2023/03/06 01:45:04;;;;;;;;;22.40;21.00;;;;;5.95;54.74;97821.25;6150230;28;96413;-55
2023/03/06 01:48:10;;;;;;;;;28.00;28.00;;;;;5.94;54.80;97813.44;6150567;28;96308;-56
2023/03/06 01:51:15;;;;;;;;;25.00;23.00;;;;;5.91;54.93;97816.56;6150555;28;98750;-55
2023/03/06 01:54:23;;;;;;;;;26.67;23.67;;;;;5.91;55.10;97817.38;6169320;28;96322;-55
2023/03/06 01:57:30;;;;;;;;;24.50;23.50;;;;;5.89;55.20;97806.06;6166435;28;96184;-55
2023/03/06 02:00:33;;;;;;;;;22.40;20.80;;;;;5.77;55.26;97804.28;6150557;28;96668;-55
2023/03/06 02:03:39;;;;;;;;;23.00;22.00;;;;;5.79;55.14;97791.53;6149588;28;96302;-55
2023/03/06 02:06:44;;;;;;;;;23.33;21.00;;;;;5.83;54.90;97800.75;6149810;28;96292;-55
2023/03/06 02:09:47;;;;;;;;;22.00;20.00;;;;;5.76;54.91;97819.53;6149603;28;96873;-56
2023/03/06 02:12:51;;;;;;;;;24.60;23.60;;;;;5.78;55.05;97803.25;6148913;28;96240;-55
2023/03/06 02:15:55;;;;;;;;;21.00;19.20;;;;;5.76;54.98;97813.34;6127294;28;96894;-58
2023/03/06 02:19:01;;;;;;;;;27.50;26.00;;;;;5.71;54.88;97811.34;6145947;28;98398;-55
2023/03/06 02:22:06;;;;;;;;;23.60;22.60;;;;;5.74;54.92;97804.72;6126223;28;96641;-55
2023/03/06 02:25:21;;;;;;;;;24.00;22.50;;;;;5.78;54.74;97796.03;6161562;28;96120;-55
2023/03/06 02:28:25;;;;;;;;;21.50;20.50;;;;;5.83;54.76;97812.25;6149846;28;98323;-55
2023/03/06 02:31:31;;;;;;;;;21.50;19.50;;;;;5.86;54.83;97805.69;6149481;28;96878;-55
2023/03/06 02:34:54;;;;;;;;;24.50;22.50;;;;;5.87;54.92;97802.78;6150372;28;96252;-55
2023/03/06 02:38:02;;;;;;;;;24.60;22.60;;;;;5.94;54.73;97802.75;6149205;28;96910;-55
2023/03/06 02:41:09;;;;;;;;;26.60;26.00;;;;;5.97;54.52;97796.94;6132521;28;98309;-56
2023/03/06 02:44:12;;;;;;;;;22.00;21.00;;;;;5.92;54.53;97794.94;6149065;28;99184;-55
2023/03/06 02:47:17;;;;;;;;;26.40;24.00;;;;;5.91;54.45;97797.84;6149128;28;97748;-55
2023/03/06 02:50:21;;;;;;;;;22.60;21.00;;;;;5.84;54.55;97789.84;6125080;28;96616;-56
2023/03/06 02:53:24;;;;;;;;;25.40;23.40;;;;;5.84;54.42;97789.84;6146930;28;97793;-55
2023/03/06 02:56:29;;;;;;;;;29.60;27.40;;;;;5.76;54.74;97794.63;6155014;28;96078;-55
2023/03/06 02:59:33;;;;;;;;;24.20;22.20;;;;;5.69;54.93;97792.00;6136704;28;98370;-55
2023/03/06 03:02:38;;;;;;;;;24.00;22.00;;;;;5.60;54.95;97788.78;6146525;28;96366;-55
2023/03/06 03:05:41;;;;;;;;;24.25;23.25;;;;;5.63;54.96;97788.34;6147831;28;96179;-55
2023/03/06 03:09:04;;;;;;;;;27.80;25.80;;;;;5.62;54.90;97780.53;6123517;28;97235;-55
2023/03/06 03:12:10;;;;;;;;;21.80;20.80;;;;;5.59;55.13;97779.13;6145577;28;96550;-56
2023/03/06 03:15:14;;;;;;;;;23.75;22.75;;;;;5.60;55.05;97774.59;6159233;28;96306;-55
2023/03/06 03:18:18;;;;;;;;;26.50;23.50;;;;;5.55;54.97;97785.13;6146882;28;96249;-55
2023/03/06 03:21:21;;;;;;;;;29.60;26.60;;;;;5.18;54.94;97728.81;6135870;28;96202;-55
2023/03/06 03:24:25;;;;;;;;;26.40;26.00;;;;;5.59;55.08;97789.81;6161417;28;96420;-55
2023/03/06 03:27:31;;;;;;;;;26.75;24.00;;;;;5.66;54.96;97787.94;6141192;28;96193;-56
2023/03/06 03:30:34;;;;;;;;;32.50;30.00;;;;;5.64;55.01;97784.63;6141670;28;96292;-55
2023/03/06 03:33:38;;;;;;;;;24.00;23.00;;;;;5.67;55.18;97773.50;6138044;28;96647;-55
2023/03/06 03:36:42;;;;;;;;;26.75;25.00;;;;;5.75;54.86;97777.78;6147624;28;96224;-55
2023/03/06 03:39:47;;;;;;;;;29.00;27.00;;;;;5.76;54.91;97782.09;6147958;28;98377;-56
2023/03/06 03:42:52;;;;;;;;;31.00;28.00;;;;;5.81;54.84;97765.41;6131780;28;96408;-55
2023/03/06 03:45:55;;;;;;;;;30.60;28.60;;;;;5.65;54.84;97743.50;6146506;28;96830;-55
2023/03/06 03:49:00;;;;;;;;;29.40;28.00;;;;;5.79;55.03;97756.75;6148006;28;96367;-55
2023/03/06 03:52:04;;;;;;;;;37.00;31.20;;;;;5.87;55.01;97764.53;6146957;28;96246;-55
2023/03/06 03:55:10;;;;;;;;;26.60;25.60;;;;;5.86;55.06;97766.38;6131816;28;96592;-56
2023/03/06 03:58:16;;;;;;;;;35.40;30.00;;;;;5.87;55.20;97768.03;6124269;28;96228;-55
2023/03/06 04:01:20;;;;;;;;;31.00;30.00;;;;;5.88;55.29;97768.84;6133736;28;96368;-55
2023/03/06 04:04:24;;;;;;;;;32.00;28.25;;;;;5.89;55.30;97757.94;6148467;28;96280;-56
2023/03/06 04:07:28;;;;;;;;;33.67;28.00;;;;;5.93;55.28;97751.09;6131233;28;98337;-55
2023/03/06 04:10:33;;;;;;;;;33.00;30.00;;;;;5.95;55.22;97748.22;6138863;28;96269;-55
2023/03/06 04:13:39;;;;;;;;;32.00;29.20;;;;;5.94;55.25;97747.41;6129527;28;97479;-55
2023/03/06 04:16:42;;;;;;;;;36.80;31.40;;;;;5.98;55.22;97748.59;6146727;28;96307;-55
2023/03/06 04:19:46;;;;;;;;;40.00;33.40;;;;;6.01;55.18;97753.50;6157476;28;96309;-55
2023/03/06 04:22:49;;;;;;;;;30.40;28.40;;;;;5.94;55.28;97738.56;6134318;28;96599;-55
2023/03/06 04:25:53;;;;;;;;;35.00;30.40;;;;;5.98;54.97;97747.75;6148151;28;96397;-56
2023/03/06 04:28:59;;;;;;;;;28.80;27.80;;;;;6.04;55.13;97750.38;6131175;28;96623;-55
2023/03/06 04:32:03;;;;;;;;;31.25;27.50;;;;;6.00;55.34;97751.88;6147700;28;97653;-55
2023/03/06 04:35:07;;;;;;;;;35.60;29.80;;;;;6.07;54.99;97749.13;6126003;28;96664;-55
2023/03/06 04:38:19;;;;;;;;;34.60;31.40;;;;;6.03;55.51;97761.31;6107431;28;98396;-55
2023/03/06 04:41:22;;;;;;;;;35.00;30.00;;;;;5.95;55.75;97753.56;6131117;28;96247;-55
2023/03/06 04:44:27;;;;;;;;;33.20;28.80;;;;;5.92;55.87;97741.44;6145592;28;98491;-55
2023/03/06 04:47:30;;;;;;;;;37.00;31.75;;;;;5.96;55.86;97741.84;6159186;28;98390;-55
2023/03/06 04:50:36;;;;;;;;;35.40;30.80;;;;;5.91;56.00;97741.69;6144208;28;97301;-56
2023/03/06 04:53:40;;;;;;;;;35.60;30.20;;;;;5.96;55.92;97737.28;6126276;28;98565;-55
2023/03/06 04:56:43;;;;;;;;;35.75;32.00;;;;;5.97;55.95;97743.44;6122506;28;96682;-55
2023/03/06 04:59:49;;;;;;;;;39.00;32.00;;;;;6.00;55.97;97761.75;6164694;28;96291;-55
2023/03/06 05:02:52;;;;;;;;;35.00;30.50;;;;;6.05;55.86;97746.69;6165174;28;96239;-56
2023/03/06 05:05:55;;;;;;;;;36.00;32.00;;;;;6.09;55.74;97747.06;6127537;28;97112;-56
2023/03/06 05:08:59;;;;;;;;;35.25;30.25;;;;;6.07;55.58;97731.22;6148234;28;96280;-55
2023/03/06 05:12:03;;;;;;;;;32.20;30.00;;;;;6.13;55.59;97740.22;6164167;28;96169;-55
2023/03/06 05:15:10;;;;;;;;;34.00;30.00;;;;;6.15;55.66;97740.00;6137007;28;96117;-55
2023/03/06 05:18:14;;;;;;;;;32.00;29.00;;;;;6.18;55.55;97736.88;6148254;28;96627;-60
2023/03/06 05:21:17;;;;;;;;;33.00;29.00;;;;;6.25;55.42;97756.38;6172619;28;96854;-61
2023/03/06 05:24:20;;;;;;;;;29.25;27.25;;;;;6.27;55.35;97748.91;6168847;28;96609;-60
2023/03/06 05:27:24;;;;;;;;;32.00;30.00;;;;;6.29;55.29;97749.53;6182197;28;96448;-60
2023/03/06 05:30:29;;;;;;;;;28.00;26.60;;;;;6.29;55.00;97753.03;6155824;28;96694;-61
2023/03/06 05:33:32;;;;;;;;;28.00;26.00;;;;;6.22;55.20;97735.38;6181114;28;97446;-61
2023/03/06 05:36:36;;;;;;;;;32.50;29.50;;;;;6.27;55.38;97747.06;6187998;28;98741;-59
2023/03/06 05:39:39;;;;;;;;;32.80;30.40;;;;;6.34;55.01;97750.50;6173014;28;96496;-60
2023/03/06 05:42:42;;;;;;;;;28.25;27.00;;;;;6.41;54.93;97753.09;6181796;28;96290;-58
2023/03/06 05:45:49;;;;;;;;;30.80;26.80;;;;;6.41;54.82;97751.22;6161785;28;98385;-60
2023/03/06 05:48:56;;;;;;;;;30.00;30.00;;;;;6.44;54.80;97742.78;6187133;28;96260;-60
2023/03/06 05:51:59;;;;;;;;;32.20;29.40;;;;;6.53;54.48;97744.09;6184314;28;96835;-59
2023/03/06 05:55:03;;;;;;;;;31.00;28.60;;;;;6.60;54.38;97743.22;6184254;28;96292;-60
2023/03/06 05:58:07;;;;;;;;;27.40;26.40;;;;;6.68;54.10;97740.22;6153442;28;99379;-60
2023/03/06 06:01:13;;;;;;;;;26.00;25.00;;;;;6.74;53.82;97737.47;6168801;28;96212;-61
2023/03/06 06:04:16;;;;;;;;;25.00;23.40;;;;;6.79;53.55;97728.75;6177020;28;96908;-58
2023/03/06 06:07:20;;;;;;;;;31.00;29.00;;;;;6.92;53.58;97740.13;6179054;28;96324;-60
2023/03/06 06:10:23;;;;;;;;;34.40;31.00;;;;;7.01;52.83;97735.25;6181135;28;96229;-60
2023/03/06 06:13:26;;;;;;;;;33.67;29.67;;;;;7.11;52.62;97727.50;6176606;28;97178;-60
2023/03/06 06:16:31;;;;;;;;;27.00;23.00;;;;;7.32;52.34;97727.00;6186280;28;96766;-60
2023/03/06 06:19:34;;;;;;;;;29.00;27.00;;;;;7.53;51.90;97743.56;6169139;28;98346;-59
2023/03/06 06:22:38;;;;;;;;;32.00;28.80;;;;;7.72;51.09;97739.78;6168620;28;96878;-61
2023/03/06 06:25:41;;;;;;;;;26.00;23.80;;;;;7.80;50.17;97742.94;6168664;28;96568;-61
2023/03/06 06:28:44;;;;;;;;;29.40;28.00;;;;;7.88;49.62;97747.13;6185043;28;96477;-59
2023/03/06 06:31:50;;;;;;;;;25.00;25.00;;;;;7.91;49.64;97745.84;6181451;28;96109;-60
2023/03/06 06:34:54;;;;;;;;;31.75;29.75;;;;;8.05;49.13;97742.72;6171578;28;97269;-61
2023/03/06 06:37:57;;;;;;;;;24.00;22.00;;;;;8.20;48.83;97740.38;6174513;28;97546;-61
2023/03/06 06:41:04;;;;;;;;;28.00;26.00;;;;;8.35;48.35;97748.00;6181837;28;96226;-59
2023/03/06 06:44:28;;;;;;;;;33.00;30.00;;;;;8.45;47.70;97744.72;6162895;28;99855;-60
2023/03/06 06:47:32;;;;;;;;;29.50;26.00;;;;;8.48;47.56;97744.22;6186269;28;96283;-60
2023/03/06 06:50:36;;;;;;;;;28.00;26.00;;;;;8.99;46.51;97736.13;6180461;28;96190;-60
2023/03/06 06:53:39;;;;;;;;;24.60;24.00;;;;;9.55;45.14;97721.84;6173631;28;96326;-61
2023/03/06 06:56:43;;;;;;;;;26.25;23.00;;;;;10.27;43.56;97718.41;6175261;28;96168;-61
2023/03/06 06:59:46;;;;;;;;;25.20;21.00;;;;;10.79;41.45;97710.75;6151433;28;96636;-60
2023/03/06 07:02:51;;;;;;;;;24.29;23.00;;;;;11.48;40.52;97711.75;6173800;28;96344;-60
2023/03/06 07:05:56;;;;;;;;;27.17;25.00;;;;;12.92;37.62;97695.13;6182235;28;96744;-60
2023/03/06 07:09:00;;;;;;;;;23.80;22.80;;;;;14.20;34.80;97722.09;6174288;28;96941;-61
2023/03/06 07:12:03;;;;;;;;;24.00;22.00;;;;;14.96;33.69;97711.03;6179255;28;96421;-61
2023/03/06 07:15:08;;;;;;;;;20.00;19.60;;;;;14.94;32.93;97707.81;6171908;28;96264;-61
2023/03/06 07:18:12;;;;;;;;;18.40;17.00;;;;;14.27;33.94;97692.78;6146765;28;96828;-60
2023/03/06 07:21:16;;;;;;;;;23.40;20.40;;;;;14.03;33.46;97715.31;6180219;28;96245;-61
2023/03/06 07:24:19;;;;;;;;;24.00;23.00;;;;;13.69;34.52;97710.44;6179634;28;96322;-61
2023/03/06 07:27:24;;;;;;;;;22.00;20.50;;;;;13.86;33.89;97702.88;6177456;28;96372;-62
2023/03/06 07:30:28;;;;;;;;;18.50;18.00;;;;;14.22;33.29;97716.41;6158745;28;98443;-61
2023/03/06 07:33:33;;;;;;;;;20.00;18.00;;;;;13.78;33.70;97703.41;6176412;28;96431;-62
2023/03/06 07:36:39;;;;;;;;;20.00;19.00;;;;;13.24;35.26;97729.34;6161088;28;96446;-58
2023/03/06 07:39:42;;;;;;;;;24.00;24.00;;;;;12.84;35.77;97730.81;6136452;28;96325;-58
2023/03/06 07:42:46;;;;;;;;;19.00;17.25;;;;;12.48;36.40;97726.28;6156201;28;97213;-58
2023/03/06 07:45:56;;;;;;;;;20.40;19.40;;;;;12.08;36.96;97743.03;6144874;28;96927;-58
2023/03/06 07:49:01;;;;;;;;;22.00;19.20;;;;;11.79;37.68;97744.44;6162029;28;96607;-58
2023/03/06 07:52:05;;;;;;;;;20.60;18.60;;;;;11.52;38.27;97739.03;6161204;28;96846;-58
2023/03/06 07:55:10;;;;;;;;;19.00;16.20;;;;;11.37;38.64;97733.50;6160550;28;96704;-58
2023/03/06 07:58:13;;;;;;;;;21.80;19.80;;;;;11.29;39.27;97737.44;6161233;28;96327;-58
2023/03/06 08:01:19;;;;;;;;;20.20;18.80;;;;;11.15;39.24;97736.22;6143435;28;98003;-58
2023/03/06 08:04:24;;;;;;;;;22.50;21.50;;;;;11.04;39.21;97729.91;6162200;28;96412;-58
2023/03/06 08:07:29;;;;;;;;;18.00;17.00;;;;;11.08;38.98;97727.53;6136739;28;96913;-58
2023/03/06 08:10:33;;;;;;;;;19.40;17.80;;;;;11.25;38.49;97728.22;6137622;28;96619;-58
2023/03/06 08:13:37;;;;;;;;;16.40;16.00;;;;;11.40;37.05;97738.38;6139110;28;96229;-58
2023/03/06 08:16:40;;;;;;;;;17.40;16.00;;;;;11.62;37.27;97733.75;6161979;28;96223;-58
2023/03/06 08:19:45;;;;;;;;;15.00;14.40;;;;;11.96;36.42;97735.16;6186782;28;96346;-58
2023/03/06 08:22:48;;;;;;;;;15.40;13.00;;;;;12.43;35.63;97734.38;6177922;28;96471;-58
2023/03/06 08:25:56;;;;;;;;;15.00;14.80;;;;;13.02;34.67;97730.31;6141805;28;96422;-58
2023/03/06 08:29:01;;;;;;;;;17.00;15.50;;;;;13.55;34.09;97736.44;6159238;28;96433;-59
2023/03/06 08:32:05;;;;;;;;;15.25;13.25;;;;;13.97;32.93;97735.41;6159438;28;96973;-58
2023/03/06 08:35:15;;;;;;;;;14.00;13.75;;;;;13.96;32.53;97726.47;6159474;28;96304;-58
2023/03/06 08:38:18;;;;;;;;;20.40;19.00;;;;;14.14;32.37;97733.22;6161147;28;96380;-58
2023/03/06 08:41:21;;;;;;;;;17.60;16.20;;;;;14.59;31.60;97711.47;6147922;28;96930;-58
2023/03/06 08:44:25;;;;;;;;;16.00;15.80;;;;;14.88;30.67;97730.63;6165247;28;97615;-59
2023/03/06 08:47:28;;;;;;;;;17.60;17.00;;;;;15.31;30.09;97731.78;6148431;28;96228;-59
2023/03/06 08:50:33;;;;;;;;;17.40;16.00;;;;;15.80;29.95;97737.19;6132149;28;97511;-59
2023/03/06 08:53:37;;;;;;;;;15.00;15.00;;;;;16.09;27.96;97739.13;6166185;28;96301;-58
2023/03/06 08:56:46;;;;;;;;;15.60;15.40;;;;;16.71;27.74;97741.81;6166733;28;96180;-59
2023/03/06 08:59:49;;;;;;;;;9.00;8.00;;;;;17.28;26.24;97742.78;6152485;28;96684;-59
2023/03/06 09:02:52;;;;;;;;;19.00;16.20;;;;;18.49;25.94;97743.63;6123777;28;96714;-59
2023/03/06 09:05:57;;;;;;;;;17.00;17.00;;;;;19.78;23.94;97738.88;6137244;28;96809;-59
2023/03/06 09:09:01;;;;;;;;;16.00;14.00;;;;;21.60;21.42;97731.22;6153296;28;96884;-59
2023/03/06 09:12:04;;;;;;;;;13.20;13.20;;;;;23.04;19.64;97732.50;6163045;28;97041;-59
2023/03/06 09:15:08;;;;;;;;;16.40;14.60;;;;;23.77;18.54;97741.31;6130914;28;98724;-59
2023/03/06 09:18:12;;;;;;;;;12.20;11.80;;;;;24.19;18.53;97729.16;6123761;28;96510;-59
2023/03/06 09:21:16;;;;;;;;;10.80;10.00;;;;;24.80;17.28;97732.91;6141568;28;96476;-59
2023/03/06 09:24:20;;;;;;;;;12.80;11.00;;;;;25.55;17.46;97710.53;6152981;28;96339;-59
2023/03/06 09:27:23;;;;;;;;;13.00;12.00;;;;;26.13;16.03;97717.38;6135954;28;99608;-59
2023/03/06 09:30:27;;;;;;;;;9.00;7.60;;;;;26.53;15.00;97711.81;6146644;28;98664;-59
2023/03/06 09:33:32;;;;;;;;;9.00;8.00;;;;;27.11;15.04;97704.63;6165340;28;96510;-59
2023/03/06 09:36:36;;;;;;;;;12.40;12.00;;;;;27.66;14.61;97711.09;6165626;28;96368;-59
2023/03/06 09:39:58;;;;;;;;;9.40;8.00;;;;;28.27;14.06;97719.50;6146427;28;96663;-59
2023/03/06 09:43:01;;;;;;;;;7.00;6.00;;;;;27.93;13.97;97723.94;6147455;28;96480;-59
2023/03/06 09:46:19;;;;;;;;;7.75;7.00;;;;;28.27;13.58;97709.22;6147456;28;96228;-59
2023/03/06 09:49:40;;;;;;;;;7.00;7.00;;;;;28.66;14.06;97707.19;6165500;28;96285;-59
2023/03/06 09:53:01;;;;;;;;;8.80;7.80;;;;;28.39;13.45;97702.75;6165364;28;97888;-59
2023/03/06 09:56:13;;;;;;;;;8.00;7.00;;;;;28.13;13.13;97703.41;6148302;28;97621;-60
2023/03/06 09:59:20;;;;;;;;;7.20;7.20;;;;;26.71;13.79;97702.81;6165160;28;96173;-60
2023/03/06 10:02:34;;;;;;;;;6.00;6.00;;;;;25.43;15.09;97690.06;6147860;28;96319;-60
2023/03/06 10:05:42;;;;;;;;;7.20;7.20;;;;;25.35;15.42;97691.00;6165064;28;96675;-59
2023/03/06 10:08:51;;;;;;;;;6.75;6.25;;;;;25.74;15.05;97677.59;6165011;28;96455;-60
2023/03/06 10:11:58;;;;;;;;;6.60;6.00;;;;;26.69;13.91;97690.50;6165101;28;96302;-60
2023/03/06 10:15:12;;;;;;;;;7.67;6.33;;;;;27.40;14.52;97686.72;6147874;28;96250;-60
2023/03/06 10:18:16;;;;;;;;;6.00;5.00;;;;;28.21;12.79;97684.94;6147340;28;96377;-60
2023/03/06 10:21:39;;;;;;;;;3.75;3.75;;;;;28.69;12.84;97664.03;6146941;28;96675;-60
2023/03/06 10:24:52;;;;;;;;;5.00;4.00;;;;;28.93;12.62;97672.00;6146754;28;98615;-60
2023/03/06 10:28:00;;;;;;;;;6.00;5.60;;;;;28.94;12.22;97684.72;6145023;28;97407;-61
2023/03/06 10:31:11;;;;;;;;;7.00;6.00;;;;;29.23;12.68;97663.75;6150973;28;96410;-60
2023/03/06 10:34:21;;;;;;;;;7.00;6.00;;;;;29.81;11.62;97675.31;6125288;28;98424;-60
2023/03/06 10:37:28;;;;;;;;;4.00;4.00;;;;;30.12;11.68;97663.84;6145383;28;98447;-60
2023/03/06 10:40:46;;;;;;;;;4.20;4.20;;;;;30.05;11.70;97665.75;6145276;28;96339;-60
2023/03/06 10:44:23;;;;;;;;;5.00;5.00;;;;;29.71;10.90;97662.91;6164183;28;96288;-60
2023/03/06 10:47:30;;;;;;;;;5.00;5.00;;;;;29.67;11.93;97661.25;6164650;28;96495;-60
2023/03/06 10:50:33;;;;;;;;;5.00;4.00;;;;;29.57;11.88;97648.03;6158761;28;97108;-60
2023/03/06 10:53:49;;;;;;;;;6.00;6.00;;;;;29.36;11.39;97661.63;6163841;28;96454;-60
2023/03/06 10:56:54;;;;;;;;;6.00;6.00;;;;;28.63;11.77;97648.91;6146318;28;98416;-60
2023/03/06 10:59:58;;;;;;;;;6.50;6.00;;;;;27.90;12.28;97638.81;6131630;28;96460;-60
2023/03/06 11:03:20;;;;;;;;;9.00;8.00;;;;;27.56;12.74;97637.72;6133623;28;96836;-60
2023/03/06 11:06:33;;;;;;;;;8.00;7.00;;;;;27.69;12.89;97630.84;6132752;28;96497;-60
2023/03/06 11:09:36;;;;;;;;;8.00;8.00;;;;;27.84;13.00;97626.41;6115209;28;98401;-60
2023/03/06 11:12:43;;;;;;;;;7.00;6.25;;;;;27.89;12.91;97624.16;6140026;28;96756;-60
2023/03/06 11:15:56;;;;;;;;;7.00;7.00;;;;;27.86;12.64;97599.13;6146146;28;96620;-61
2023/03/06 11:19:02;;;;;;;;;10.00;8.67;;;;;28.07;12.62;97609.81;6164310;28;96795;-60
2023/03/06 11:22:17;;;;;;;;;9.00;9.00;;;;;28.24;13.25;97610.22;6164083;28;96393;-60
2023/03/06 11:25:23;;;;;;;;;11.00;10.00;;;;;27.87;12.88;97592.44;6139749;28;96304;-60
2023/03/06 11:28:30;;;;;;;;;8.20;8.20;;;;;27.40;13.83;97604.50;6155351;28;96662;-60
2023/03/06 11:31:37;;;;;;;;;9.25;9.25;;;;;26.66;14.09;97597.22;6144075;28;96411;-60
2023/03/06 11:34:47;;;;;;;;;7.00;6.60;;;;;26.21;14.14;97597.63;6163722;28;96133;-60
2023/03/06 11:37:57;;;;;;;;;9.75;9.00;;;;;26.12;14.24;97581.22;6163888;28;96354;-60
2023/03/06 11:41:05;;;;;;;;;8.00;7.00;;;;;25.74;14.25;97595.59;6163400;28;97381;-60
2023/03/06 11:44:18;;;;;;;;;8.50;8.50;;;;;24.90;15.34;97578.09;6137276;28;96414;-60
2023/03/06 11:47:25;;;;;;;;;9.00;9.00;;;;;24.50;15.62;97583.47;6121329;28;96647;-60
2023/03/06 11:50:34;;;;;;;;;7.20;7.00;;;;;23.79;15.79;97560.16;6121400;28;97904;-60
2023/03/06 11:53:40;;;;;;;;;12.40;10.60;;;;;22.88;17.00;97551.69;6153877;28;97327;-60
2023/03/06 11:56:54;;;;;;;;;8.00;7.00;;;;;21.83;18.01;97561.81;6155523;28;97434;-59
2023/03/06 12:00:21;;;;;;;;;10.00;9.00;;;;;21.07;19.22;97551.38;6150851;28;96347;-60
2023/03/06 12:03:53;;;;;;;;;9.00;8.00;;;;;20.30;20.11;97552.03;6132773;28;96886;-60
2023/03/06 12:07:08;;;;;;;;;9.00;9.00;;;;;19.56;19.34;97545.53;6150509;28;96265;-60
2023/03/06 12:10:22;;;;;;;;;9.00;8.00;;;;;19.08;20.99;97537.13;6131145;28;96606;-60
2023/03/06 12:13:48;;;;;;;;;9.00;9.00;;;;;18.45;21.58;97537.97;6144840;28;96341;-59
2023/03/06 12:17:06;;;;;;;;;9.00;8.00;;;;;17.96;22.08;97540.59;6144573;28;98645;-60
2023/03/06 12:20:30;;;;;;;;;9.00;9.00;;;;;17.43;22.26;97526.53;6122919;28;96870;-59
2023/03/06 12:23:54;;;;;;;;;10.00;9.00;;;;;16.96;23.08;97524.88;6133175;28;96828;-59
2023/03/06 12:27:08;;;;;;;;;11.00;11.00;;;;;16.58;23.75;97526.72;6144182;28;96791;-59
2023/03/06 12:30:34;;;;;;;;;9.60;9.00;;;;;16.10;24.72;97526.00;6166414;28;96195;-59
2023/03/06 12:33:48;;;;;;;;;11.00;10.00;;;;;15.72;25.35;97517.72;6161459;28;96464;-59
2023/03/06 12:37:04;;;;;;;;;10.00;9.00;;;;;15.49;24.51;97532.06;6168669;28;96238;-59
2023/03/06 12:40:34;;;;;;;;;11.00;8.20;;;;;15.06;24.95;97531.06;6152517;28;96623;-59
2023/03/06 12:44:04;;;;;;;;;9.80;9.40;;;;;14.67;25.05;97520.19;6161861;28;96617;-59
2023/03/06 12:47:10;;;;;;;;;9.60;9.40;;;;;14.45;25.63;97522.50;6167761;28;96941;-59
2023/03/06 12:50:22;;;;;;;;;10.80;9.80;;;;;14.39;26.41;97515.50;6162410;28;96682;-59
2023/03/06 12:53:29;;;;;;;;;9.00;8.00;;;;;14.24;26.09;97508.22;6156910;28;96898;-59
2023/03/06 12:56:35;;;;;;;;;10.60;9.00;;;;;14.32;27.17;97515.75;6157652;28;96473;-59
2023/03/06 12:59:43;;;;;;;;;10.60;9.60;;;;;14.34;27.37;97513.59;6140837;28;96692;-59
2023/03/06 13:02:57;;;;;;;;;9.40;8.40;;;;;14.39;27.04;97512.78;6160596;28;96366;-59
2023/03/06 13:06:20;;;;;;;;;7.50;7.50;;;;;14.27;26.55;97510.34;6162170;28;96405;-59
2023/03/06 13:09:34;;;;;;;;;10.75;9.00;;;;;14.31;28.09;97512.25;6174424;28;96814;-59
2023/03/06 13:12:53;;;;;;;;;11.00;10.40;;;;;14.24;27.73;97508.22;6141270;28;96462;-59
2023/03/06 13:16:13;;;;;;;;;10.00;9.00;;;;;14.23;27.94;97506.59;6159538;28;96764;-59
2023/03/06 13:19:19;;;;;;;;;12.60;11.60;;;;;14.20;28.03;97509.88;6161007;28;100426;-59
2023/03/06 13:22:28;;;;;;;;;10.00;10.00;;;;;14.22;28.22;97507.69;6145045;28;97344;-59
2023/03/06 13:25:48;;;;;;;;;9.00;8.00;;;;;14.00;27.59;97510.75;6166266;28;96261;-59
2023/03/06 13:28:53;;;;;;;;;9.00;9.00;;;;;13.75;27.89;97511.66;6166181;28;96761;-58
2023/03/06 13:32:15;;;;;;;;;9.00;8.00;;;;;13.64;27.50;97501.13;6165986;28;97501;-59
2023/03/06 13:35:48;;;;;;;;;9.60;9.60;;;;;13.43;28.57;97489.53;6145995;28;99322;-59
2023/03/06 13:39:07;;;;;;;;;10.60;9.60;;;;;13.49;28.89;97479.53;6164893;28;96423;-58
2023/03/06 13:42:26;;;;;;;;;9.80;8.00;;;;;13.68;28.38;97475.13;6164164;28;96628;-59
2023/03/06 13:45:37;;;;;;;;;8.00;8.00;;;;;13.61;28.57;97467.28;6165277;28;96209;-58
2023/03/06 13:48:43;;;;;;;;;9.00;9.00;;;;;13.42;27.48;97480.59;6147499;28;98901;-59
2023/03/06 13:52:05;;;;;;;;;7.40;7.00;;;;;13.22;27.26;97469.00;6154762;28;97114;-58
2023/03/06 13:55:19;;;;;;;;;6.00;5.60;;;;;13.09;27.44;97470.34;6154565;28;96857;-59
2023/03/06 13:58:39;;;;;;;;;7.20;7.20;;;;;13.08;28.38;97471.44;6152441;28;96976;-59
2023/03/06 14:01:52;;;;;;;;;9.40;9.00;;;;;13.01;28.58;97485.22;6155095;28;96367;-59
2023/03/06 14:04:58;;;;;;;;;10.00;10.00;;;;;12.93;32.23;97493.06;6165437;28;96926;-59
2023/03/06 14:08:08;;;;;;;;;12.75;11.00;;;;;12.50;35.84;97491.69;6163363;28;98400;-59
2023/03/06 14:11:19;;;;;;;;;10.00;10.00;;;;;11.91;36.67;97448.03;6165118;28;96276;-59
2023/03/06 14:14:33;;;;;;;;;12.60;12.00;;;;;11.89;37.67;97502.28;6164935;28;96242;-58
2023/03/06 14:17:38;;;;;;;;;10.00;9.00;;;;;11.58;38.25;97506.69;6177615;28;96424;-59
2023/03/06 14:20:44;;;;;;;;;10.00;10.00;;;;;11.33;38.26;97509.25;6164509;28;96498;-58
2023/03/06 14:23:58;;;;;;;;;7.80;7.20;;;;;10.96;38.73;97495.75;6165101;28;96923;-58
2023/03/06 14:27:04;;;;;;;;;8.00;7.00;;;;;10.80;38.75;97518.25;6164973;28;96909;-58
2023/03/06 14:30:13;;;;;;;;;8.00;8.00;;;;;10.74;38.67;97516.59;6163963;28;97065;-58